Promitheas — SYIJ — position and weather

sailwx.info

Track history (hours):
 
Tides and Currents Weather Stations Pressure Air Temp Water Temp Dewpoint Dewpoint Depression Visibility Wind Speed Wind Dir Waves Ship Positions

Promitheas

Last reported at 2014-Sep-26 17:31 UTC. Time now 2014-Oct-01 20:19 UTC.
Position N 31°06' E 029°37'.

Length 249 m; draft 8.4 m.

Type: Tanker. MMSI: 240547000.

Date/timePositionNaut miles runAvg speedWind from/ knotsBaromVisibWave heightAir tempDewpointWater temp
2014-Sep-26 17:31N 31°06' E 029°37'0 0.1
2014-Sep-26 16:07N 31°06' E 029°37'1 1.0
2014-Sep-26 15:20N 31°06' E 029°37'4 4.5
2014-Sep-26 14:33N 31°08' E 029°34'  
2014-Sep-20 02:13N 37°24' E 024°15'911.4
2014-Sep-20 01:23N 37°32' E 024°22'289 8.4
2014-Sep-18 15:05N 40°54' E 028°48'5 9.7
2014-Sep-18 14:32N 40°56' E 028°54'4 4.2
2014-Sep-18 13:33N 40°59' E 028°59'22 9.6
2014-Sep-18 11:17N 41°19' E 029°09'6 6.8
2014-Sep-18 10:26N 41°22' E 029°15'7 8.2
2014-Sep-18 09:33N 41°25' E 029°24'1010.5
2014-Sep-18 08:33N 41°27' E 029°38'  
Track history (hours):
 
Tides and Currents Weather Stations Pressure Air Temp Water Temp Dewpoint Dewpoint Depression Visibility Wind Speed Wind Dir Waves Ship Positions

Promitheas

Last reported at 2014-Sep-26 17:31 UTC. Time now 2014-Oct-01 20:19 UTC.
Position N 31°06' E 029°37'.

Length 249 m; draft 8.4 m.

Type: Tanker. MMSI: 240547000.

Date/timePositionNaut miles runAvg speedWind from/ knotsBaromVisibWave heightAir tempDewpointWater temp
2014-Sep-26 17:31N 31°06' E 029°37'0 0.1
2014-Sep-26 16:07N 31°06' E 029°37'1 1.0
2014-Sep-26 15:20N 31°06' E 029°37'4 4.5
2014-Sep-26 14:33N 31°08' E 029°34'  
2014-Sep-20 02:13N 37°24' E 024°15'911.4
2014-Sep-20 01:23N 37°32' E 024°22'289 8.4
2014-Sep-18 15:05N 40°54' E 028°48'5 9.7
2014-Sep-18 14:32N 40°56' E 028°54'4 4.2
2014-Sep-18 13:33N 40°59' E 028°59'22 9.6
2014-Sep-18 11:17N 41°19' E 029°09'6 6.8
2014-Sep-18 10:26N 41°22' E 029°15'7 8.2
2014-Sep-18 09:33N 41°25' E 029°24'1010.5
2014-Sep-18 08:33N 41°27' E 029°38'  

Dump ship's entire track history